Weather observations for the past three days for
Presidio Lely International Airport
Metric (Imperial)
Date Time (cdt) Wind (kph) Vis. (km) Weather Sky Cond. Temperature (ºC) Relative Humidity Wind Chill (°C) Heat Index (°C) Pressure Precipitation (cm)
Air Dwpt 6 hour altimeter (cm) sea level (mb) 1 hr 3 hr 6 hr
Max. Min.
05 19:35 E 15 16.09 Fair CLR 30.6 16.1 42% 31 76 0.0
05 19:15 E 19 16.09 Fair CLR 31.5 15.6 38% 31 76 0.0
05 18:35 NE 15 G 30 16.09 Fair CLR 31 15.5 39% 31 75.97 0.0
05 18:15 N 24 G 30 16.09 Fair CLR 31.3 15.4 38% 31 75.97 0.0
05 17:55 NE 26 G 35 16.09 Fair CLR 31.8 13.9 34% 31 76 0.0
05 17:35 NE 28 G 37 16.09 Fair CLR 31.9 14.5 35% 31 76 0.0
05 17:15 N 30 G 43 16.09 Fair CLR 32.5 15.7 36% 32 75.95 0.0
05 16:55 N 33 G 52 16.09 Thunderstorm in Vicinity and Breezy SCT090 32.8 15.7 36% 33 75.95 0.0
05 16:35 N 15 16.09 Thunderstorm SCT090 37.5 15 26% 37 75.95 0.0
05 16:15 N 17 16.09 Fair CLR 37.4 15.6 27% 38 75.95 0.0
05 15:55 NW 24 G 30 16.09 Partly Cloudy SCT080 SCT110 36.6 16 29% 37 75.95 0.0
05 15:35 N 28 G 39 16.09 Mostly Cloudy BKN080 BKN110 36.1 15.9 30% 36 76 0.0
05 15:15 Calm 16.09 Fair CLR 36.5 15.9 29% 37 76 0.0
05 14:55 W 6 16.09 Thunderstorm in Vicinity CLR 36.2 16.1 30% 37 76.05 0.0
05 12:55 Calm 16.09 Fair CLR 33.6 16.2 34.1 25.5 35% 34 76.23 0.0
05 12:35 SW 11 16.09 Fair CLR 33.5 16.7 37% 34 76.25 0.0
05 12:15 W 6 16.09 Fair CLR 32.8 16.9 39% 33 76.28 0.0
05 11:55 W 6 16.09 Fair CLR 32 16.8 40% 32 76.28 0.0
05 11:35 S 6 16.09 Fair CLR 31.5 17 42% 32 76.28 0.0
05 11:15 Calm 16.09 Fair CLR 30.9 17 43% 31 76.28 0.0
05 10:55 NW 7 16.09 Fair CLR 30.5 17.3 45% 31 76.28 0.0
05 10:35 Calm 16.09 Fair CLR 29.5 17 47% 30 76.28 0.0
05 10:15 Calm 16.09 Fair CLR 29 17.3 49% 30 76.3 0.0
05 09:55 Calm 16.09 Fair CLR 28.7 17.3 50% 29 76.3 0.0
05 09:35 SE 7 16.09 Fair CLR 28.6 17.5 51% 29 76.3 0.0
05 09:15 SE 7 16.09 Fair CLR 28.5 17.2 50% 29 76.28 0.0
05 08:55 SE 7 16.09 Fair CLR 28 17.3 52% 29 76.28 0.0
05 08:35 Calm 16.09 Fair CLR 27.3 17.2 54% 28 76.28 0.0
05 08:15 Calm 16.09 Fair CLR 26.2 17.9 60% 27 76.25 0.0
05 07:55 Calm 16.09 Fair CLR 25.5 17.9 63% 26 76.23 0.0
05 07:35 NW 7 16.09 Fair CLR 25.6 18 63% 27 76.2 0.0
05 07:15 NW 7 16.09 Fair CLR 26 18 61% 27 76.2 0.0
05 06:55 NW 6 16.09 Fair CLR 26.6 17.8 29.5 26.6 59% 28 76.2 0.0
05 06:35 Calm 16.09 Fair CLR 27.2 17.5 55% 28 76.2 0.0
05 06:15 Calm 16.09 Fair CLR 27.2 17.9 57% 28 76.2 0.0
05 05:55 N 6 16.09 Fair CLR 28.5 17 50% 29 76.17 0.0
05 05:35 Calm 16.09 Fair CLR 28.5 16.9 49% 29 76.17 0.0
05 05:15 N 9 16.09 Fair CLR 28.5 16.8 49% 29 76.17 0.0
05 04:55 N 7 16.09 Fair CLR 28.6 16.7 49% 29 76.17 0.0
05 04:35 N 11 16.09 Fair CLR 28.7 16.6 48% 29 76.15 0.0
05 04:15 N 13 16.09 Fair CLR 28.7 16.7 48% 29 76.15 0.0
05 03:55 N 15 16.09 Fair CLR 28.9 16.7 48% 29 76.15 0.0
05 03:35 N 13 16.09 Fair CLR 29 16.6 47% 29 76.15 0.0
05 03:15 N 11 16.09 Fair CLR 29.1 16.6 47% 29 76.12 0.0
05 02:55 N 15 16.09 Fair CLR 29.4 16.5 46% 30 76.12 0.0
05 02:35 NE 15 16.09 Fair CLR 29.2 16.5 46% 29 76.15 0.0
05 02:15 NE 15 16.09 Fair CLR 29.2 16.5 46% 29 76.12 0.0
05 01:55 NE 15 16.09 Fair CLR 29.1 16.6 47% 29 76.15 0.0
05 01:35 NE 22 16.09 Fair CLR 29.2 16.6 47% 30 76.15 0.0
05 01:15 NE 26 G 33 16.09 Fair CLR 29.2 16.5 46% 29 76.15 0.0
05 00:55 NE 24 G 35 16.09 Fair CLR 29.5 16.5 32.6 29.5 45% 30 76.12 0.0
05 00:35 NE 19 G 26 16.09 Fair CLR 30 16.6 44% 30 76.12 0.0
05 00:15 NE 15 16.09 Fair CLR 30.4 16.3 43% 31 76.1 0.0
04 23:55 NE 15 16.09 Fair CLR 30.8 16.1 41% 31 76.1 0.0
04 23:35 NE 15 16.09 Fair CLR 31 16 40% 31 76.12 0.0
04 23:15 NE 22 G 33 16.09 Partly Cloudy SCT070 31.1 15.9 40% 31 76.12 0.0
04 22:55 NE 17 16.09 Mostly Cloudy SCT070 BKN100 31.2 15.4 38% 31 76.15 0.0
04 22:35 NE 13 16.09 Mostly Cloudy BKN100 BKN120 31.1 15.5 39% 31 76.15 0.0
04 22:15 E 9 16.09 Partly Cloudy SCT110 31 16.3 41% 31 76.12 0.0
04 21:55 Calm 16.09 Fair CLR 30.9 16.6 42% 31 76.12 0.0
04 21:35 N 6 16.09 Fair CLR 31 16 40% 31 76.1 0.0
04 21:15 N 9 16.09 Fair CLR 31 16.1 41% 31 76.05 0.0
04 20:55 N 9 16.09 Fair CLR 31 15.9 40% 31 76.02 0.0
04 20:35 N 7 16.09 Fair CLR 31.2 15.6 39% 31 76 0.0
04 20:15 N 13 16.09 Fair CLR 31.3 15.6 39% 31 76 0.0
04 19:55 N 13 16.09 Fair CLR 32 15.8 38% 32 75.97 0.0
04 19:35 N 13 16.09 Fair CLR 32.4 16.2 38% 32 75.97 0.0
04 19:15 N 19 16.09 Fair CLR 32.4 15.8 37% 32 75.97 0.0
04 18:55 N 28 G 33 16.09 Fair CLR 32.5 16.5 38.2 30 38% 33 75.97 0.0 0.1 0.15
04 18:35 N 28 G 37 16.09 Partly Cloudy SCT029 SCT035 SCT044 32.8 16.5 38% 33 75.97 0.0 0.1
04 18:15 N 20 G 28 11.27 Light Rain SCT029 BKN046 OVC080 30.7 18.1 47% 32 75.97 0.0 0.1
04 17:55 N 24 G 37 16.09 Rain SCT050 SCT070 BKN080 35.3 16.4 32% 36 75.97 0.0 0.03
04 17:35 NE 28 G 41 16.09 Mostly Cloudy BKN095 BKN120 36.4 15.2 28% 36 75.95 0.0
04 17:15 NW 9 16.09 Mostly Cloudy BKN095 37.7 13.5 23% 37 75.92 0.0
04 16:55 Calm 16.09 Fair CLR 37 13.7 25% 36 75.92 0.0
04 16:35 SW 13 16.09 Fair CLR 37.7 14.2 25% 37 75.92 0.0
04 16:15 S 11 16.09 Fair CLR 37.7 14.5 25% 37 75.95 0.0
04 15:55 S 11 16.09 Fair CLR 37.7 14.6 25% 38 75.97 0.0
04 15:35 S 11 16.09 Fair CLR 37.2 14.6 26% 37 76 0.0
04 15:15 SW 15 16.09 Fair CLR 37.3 14.8 26% 37 76.02 0.0
04 14:55 SW 11 16.09 Fair CLR 36.6 14.8 27% 36 76.05 0.0
04 14:35 SW 9 16.09 Fair CLR 35.8 14.8 28% 35 76.1 0.0
04 14:15 Calm 16.09 Fair CLR 35.1 14.6 29% 35 76.12 0.0
04 13:55 Calm 16.09 Fair CLR 35.4 14.8 29% 35 76.15 0.0
04 13:35 Calm 16.09 Fair CLR 34.6 14.8 30% 34 76.17 0.0
04 13:15 SE 7 16.09 Fair CLR 34.4 15 31% 34 76.2 0.0
04 12:55 Calm 16.09 Fair CLR 33.4 15.1 33.8 25.2 33% 33 76.23 0.0
04 12:35 Calm 16.09 Fair CLR 33 15 34% 33 76.25 0.0
04 12:15 Calm 16.09 Fair CLR 32.2 15.1 36% 32 76.28 0.0
04 11:55 Calm 16.09 Fair CLR 31.8 15.1 36% 31 76.28 0.0
04 11:35 Calm 16.09 Fair CLR 30.9 15.4 39% 31 76.28 0.0
04 11:15 Calm 16.09 Fair CLR 30.1 15.4 41% 30 76.3 0.0
04 10:55 Calm 16.09 Fair CLR 29.8 15.5 42% 30 76.3 0.0
04 10:35 S 6 16.09 Fair CLR 28.9 15.5 44% 29 76.3 0.0
04 10:15 E 9 16.09 Fair CLR 28.3 15.4 45% 28 76.3 0.0
04 09:55 E 9 16.09 Fair CLR 28.2 15.2 45% 28 76.3 0.0
04 09:35 E 9 16.09 Fair CLR 27.9 15.8 48% 28 76.3 0.0
04 09:15 Calm 16.09 Fair CLR 26.7 15.6 51% 27 76.3 0.0
04 08:55 Calm 16.09 Fair CLR 26.3 15.6 52% 27 76.28 0.0
04 08:35 SE 6 16.09 Fair CLR 26.4 15.4 51% 27 76.28 0.0
04 08:15 Calm 16.09 Fair CLR 25.8 15.7 54% 27 76.25 0.0
04 07:55 E 6 16.09 Fair CLR 25.3 15.5 55% 26 76.23 0.0
04 07:35 N 7 16.09 Fair CLR 25.5 15.2 53% 26 76.2 0.0
04 07:15 NW 6 16.09 Fair CLR 25.7 15.2 52% 26 76.2 0.0
04 06:55 W 9 16.09 Fair CLR 25.8 15.3 31.5 25.8 52% 26 76.17 0.0
04 06:35 NW 9 16.09 Fair CLR 26 15.5 52% 27 76.17 0.0
04 06:15 W 9 16.09 Fair CLR 26.1 15.5 52% 27 76.17 0.0
04 05:55 NW 17 16.09 Fair CLR 26.2 15.2 51% 27 76.17 0.0
04 05:35 W 19 G 31 16.09 Fair CLR 26.2 15.3 51% 27 76.15 0.0
04 05:15 W 22 16.09 Fair CLR 26 16.1 54% 27 76.12 0.0
04 04:55 NW 22 16.09 Partly Cloudy SCT120 26 16.1 54% 27 76.12 0.0
04 04:35 W 22 G 31 16.09 Mostly Cloudy BKN120 26.4 16.5 55% 27 76.12 0.0
04 04:15 W 26 16.09 Mostly Cloudy SCT095 BKN110 26.7 16.4 53% 27 76.12 0.0
04 03:55 W 15 16.09 Mostly Cloudy BKN100 28.4 16.1 47% 29 76.12 0.0
04 03:35 W 11 16.09 Partly Cloudy SCT110 28.3 16.5 49% 29 76.1 0.0
04 03:15 NW 17 16.09 Partly Cloudy SCT120 28.5 16.5 48% 29 76.1 0.0
04 02:55 W 28 16.09 Partly Cloudy SCT110 29.2 15.6 44% 29 76.1 0.0
04 02:35 NW 19 G 28 16.09 Mostly Cloudy BKN110 30.3 14.1 37% 30 76.1 0.0
04 02:15 NW 9 16.09 Mostly Cloudy BKN110 30.5 13.9 36% 30 76.1 0.0
04 01:55 NW 13 16.09 Fair CLR 30.7 14 36% 30 76.1 0.0
04 01:35 W 13 16.09 Partly Cloudy SCT110 31 14.4 36% 30 76.1 0.0
04 01:15 W 7 16.09 Mostly Cloudy BKN110 31.5 13.7 34% 31 76.1 0.0
04 00:55 NW 6 16.09 Mostly Cloudy BKN110 31.1 13.6 37 30.8 34% 30 76.07 0.0
04 00:35 W 13 16.09 Fair CLR 31.7 13.8 34% 31 76.07 0.0
04 00:15 N 11 16.09 Fair CLR 31 14.8 37% 31 76.05 0.0
03 23:55 N 9 16.09 Fair CLR 31.4 14.5 36% 31 76.05 0.0
03 23:35 N 11 16.09 Partly Cloudy SCT110 31.8 14.2 34% 31 76.02 0.0
03 23:15 Calm 16.09 Mostly Cloudy BKN110 32.5 13.8 32% 32 76.02 0.0
03 22:55 N 7 16.09 Fair CLR 33.2 13.7 31% 32 76.02 0.0
03 22:35 N 6 16.09 Fair CLR 33.7 13.5 29% 33 76.02 0.0
03 22:15 S 11 16.09 Fair CLR 33 14.3 32% 32 76.02 0.0
03 21:55 N 7 16.09 Fair CLR 33 14.3 32% 32 75.95 0.0
03 21:35 N 17 16.09 Fair CLR 34 13.4 29% 33 75.95 0.0
03 21:15 N 13 16.09 Fair CLR 33.7 14.5 31% 33 75.9 0.0
03 20:55 N 19 16.09 Fair CLR 34.3 14.8 31% 34 75.9 0.0
03 20:35 N 15 G 26 16.09 Fair CLR 34.7 14.4 29% 34 75.9 0.0
03 20:15 N 24 G 31 16.09 Fair CLR 35.2 14.4 29% 35 75.87 0.0
03 19:55 N 24 G 31 16.09 Fair CLR 36.3 13.1 25% 35 75.87 0.0
03 19:35 N 22 G 30 16.09 Fair CLR 36.9 13.8 25% 36 75.84 0.0
03 19:15 N 22 16.09 Fair CLR 36.8 13.6 25% 36 75.84 0.0
03 18:55 NE 24 G 35 16.09 Fair CLR 37.1 13.7 39.7 35.3 25% 36 75.84 0.0
03 18:35 N 28 G 35 16.09 Partly Cloudy SCT110 37.8 11.5 20% 36 75.84 0.0
03 18:15 N 33 G 44 16.09 Overcast and Breezy OVC110 38.5 12 20% 37 75.84 0.0
03 17:55 E 11 16.09 Mostly Cloudy BKN110 39.4 12 19% 38 75.84 0.0
03 17:35 SE 9 16.09 Partly Cloudy SCT110 38.8 11.2 19% 37 75.82 0.0
03 17:15 Calm 16.09 Fair CLR 38.8 11.3 19% 37 75.84 0.0
03 16:55 E 7 16.09 Fair CLR 39.2 11.5 19% 38 75.87 0.0
03 16:35 SE 9 16.09 Fair CLR 39.1 11.6 19% 38 75.87 0.0
03 16:15 W 11 16.09 Fair CLR 38.2 12.2 21% 37 75.9 0.0
03 15:55 SE 11 16.09 Fair CLR 38.9 12.8 21% 38 75.95 0.0
03 15:35 SW 9 16.09 Partly Cloudy SCT100 38.5 12.8 21% 38 75.97 0.0
03 15:15 SW 9 16.09 Mostly Cloudy BKN100 38.3 13 22% 38 75.97 0.0
03 14:55 SW 11 16.09 Fair CLR 38.1 13.2 22% 37 76 0.0
03 14:35 E 6 16.09 Fair CLR 37.5 13.2 23% 37 76.02 0.0
03 14:15 SW 11 16.09 Fair CLR 37.5 13.2 23% 37 76.05 0.0
03 13:55 SW 13 16.09 Fair CLR 36.5 13.6 25% 36 76.1 0.0
03 13:35 NW 6 16.09 Fair CLR 36.3 13.6 26% 36 76.12 0.0
03 13:15 NW 13 16.09 Fair CLR 36.3 13.6 26% 36 76.15 0.0
03 12:55 W 6 16.09 Fair CLR 35.6 13.5 35.7 27.3 26% 35 76.17 0.0
03 12:35 Calm 16.09 Fair CLR 35.5 13.7 27% 35 76.2 0.0
03 12:15 Calm 16.09 Fair CLR 34.8 14.1 29% 34 76.23 0.0
03 11:55 N 6 16.09 Fair CLR 34.3 14.1 30% 34 76.25 0.0
03 11:35 Calm 16.09 Fair CLR 33 14.3 32% 32 76.25 0.0
03 11:15 SW 7 16.09 Fair CLR 32.9 14.5 33% 32 76.28 0.0
03 10:55 S 7 16.09 Fair CLR 33 14.6 33% 32 76.28 0.0
03 10:35 SE 6 16.09 Fair CLR 32.2 14.7 35% 32 76.25 0.0
03 10:15 SE 6 16.09 Fair CLR 31.4 14.6 36% 31 76.25 0.0
03 09:55 SE 6 16.09 Fair CLR 31.3 14.6 36% 31 76.25 0.0
03 09:35 Calm 16.09 Fair CLR 30.4 15.1 39% 30 76.25 0.0
03 09:15 Calm 16.09 Fair CLR 30 14.8 40% 30 76.28 0.0
03 08:55 N 7 16.09 Fair CLR 29 15.1 43% 29 76.28 0.0
03 08:35 N 6 16.09 Fair CLR 28.4 14.9 44% 28 76.25 0.0
03 08:15 N 6 16.09 Fair CLR 27.8 14.6 44% 28 76.23 0.0
03 07:55 Calm 16.09 Fair CLR 27.6 14.6 45% 28 76.2 0.0
03 07:35 Calm 16.09 Fair CLR 27.9 14.5 44% 28 76.17 0.0
03 07:15 N 6 16.09 Fair CLR 27.5 14.5 45% 28 76.17 0.0
03 06:55 NE 6 16.09 Fair CLR 27.7 14.5 29.9 27.5 44% 28 76.17 0.0
03 06:35 NE 6 16.09 Fair CLR 27.8 14.5 44% 28 76.17 0.0
03 06:15 N 7 16.09 Fair CLR 27.7 14.6 45% 28 76.15 0.0
03 05:55 N 9 16.09 Fair CLR 28 14.6 44% 28 76.15 0.0
03 05:35 N 7 16.09 Fair CLR 27.7 14.5 44% 28 76.15 0.0
03 05:15 N 9 16.09 Fair CLR 28 14.3 43% 28 76.15 0.0
03 04:55 Calm 16.09 Fair CLR 28.2 14.3 43% 28 76.15 0.0
03 04:35 NE 6 16.09 Fair CLR 28.8 14.3 41% 29 76.15 0.0
03 04:15 Calm 16.09 Fair CLR 29.4 14.2 39% 29 76.15 0.0
03 03:55 Calm 16.09 Fair CLR 29.6 14.1 39% 29 76.15 0.0
03 03:35 Calm 16.09 Fair CLR 29.5 13.8 38% 29 76.12 0.0
03 03:15 NE 6 16.09 Fair CLR 29.7 13.5 37% 29 76.12 0.0
03 02:55 NE 7 16.09 Fair CLR 28.5 13.8 41% 28 76.12 0.0
03 02:35 N 7 16.09 Fair CLR 28.1 14.1 42% 28 76.15 0.0
03 02:15 N 11 16.09 Fair CLR 28.5 14.1 41% 28 76.15 0.0
03 01:55 N 11 16.09 Fair CLR 28.7 14.3 41% 28 76.15 0.0
03 01:35 N 11 16.09 Partly Cloudy SCT110 29 14 40% 29 76.17 0.0
03 01:15 N 7 16.09 Mostly Cloudy BKN110 29.1 13.7 39% 29 76.17 0.0
03 00:55 N 6 16.09 Fair CLR 28.7 13.6 33.5 28.6 40% 28 76.17 0.0
03 00:35 N 9 16.09 Fair CLR 28.7 14.2 41% 28 76.17 0.0
03 00:15 N 7 16.09 Fair CLR 29.1 13.8 39% 29 76.17 0.0
02 23:55 N 7 16.09 Fair CLR 28.9 15.3 44% 29 76.17 0.0
02 23:35 N 6 16.09 Fair CLR 28.8 16.2 46% 29 76.17 0.0
02 23:15 N 6 16.09 Fair CLR 29.3 15.6 43% 29 76.17 0.0
02 22:55 N 9 16.09 Fair CLR 29.3 15.4 43% 29 76.17 0.0
02 22:35 NW 6 16.09 Fair CLR 30.1 14.1 38% 30 76.15 0.0
02 22:15 N 11 16.09 Fair CLR 31.1 12.7 32% 30 76.12 0.0
02 21:55 Calm 16.09 Fair CLR 31.7 12.3 30% 31 76.1 0.0
02 21:35 Calm 16.09 Fair CLR 32.5 12.1 29% 31 76.1 0.0
02 21:15 NE 7 16.09 Fair CLR 33 12.3 28% 32 76.05 0.0
02 20:55 NE 13 16.09 Fair CLR 33.5 11.7 26% 32 76.05 0.0
02 20:35 N 15 16.09 Fair CLR 33.1 12 28% 32 76.05 0.0
02 20:15 N 17 16.09 Fair CLR 33.2 12.4 28% 32 76.02 0.0
02 19:55 N 20 16.09 Fair CLR 33.2 13.7 31% 32 76.02 0.0
Date Time (cdt) Wind (kph) Vis. (km) Weather Sky Cond. Air Dwpt Max. Min. Relative Humidity Wind Chill (°C) Heat Index (°C) altimeter (cm) sea level (mb) 1 hr 3 hr 6 hr
6 hour
Temperature (ºC) Pressure Precipitation (cm)